Fremont, California
Current Conditions -  °F | °C
As of 8:53 PM on Wednesday 22 Oct 2014 (Local Time) from KPAO Reporting Station
Scattered Clouds Scattered Clouds  
Wind Chill: 63°   Ceiling: Unl
Heat Index: 63°   Visibility: 10mi
Dew Point: 55°   Wind: 9mph
Humidity: 77%   Direction: 330°NNW
Pressure: 30.05"   Gusts: NA
Location:  37.55°N, 121.98°W
Report Text: KPAO 230353Z 33008KT 10SM SCT200 17/13 A3005
Loading
Personal Weather Stations






























Interactive Weather Map New forecast layout! Learn more

10-Day Weather Forecast

Advertisements
Track Severe Weather on mobile